sensor_id;sensor_type;location;lat;lon;timestamp;pressure;altitude;pressure_sealevel;temperature;humidity
61128;BME280;47013;42.664;23.242;2023-03-26T00:00:22;93589.19;;;9.77;74.40
61128;BME280;47013;42.664;23.242;2023-03-26T00:02:47;93583.78;;;9.77;74.74
61128;BME280;47013;42.664;23.242;2023-03-26T00:05:13;93579.16;;;9.74;75.04
61128;BME280;47013;42.664;23.242;2023-03-26T00:07:39;93584.13;;;9.79;74.40
61128;BME280;47013;42.664;23.242;2023-03-26T00:10:04;93580.94;;;9.84;74.32
61128;BME280;47013;42.664;23.242;2023-03-26T00:12:30;93577.38;;;9.91;74.07
61128;BME280;47013;42.664;23.242;2023-03-26T00:14:56;93576.22;;;9.92;74.41
61128;BME280;47013;42.664;23.242;2023-03-26T00:17:21;93563.78;;;9.94;73.70
61128;BME280;47013;42.664;23.242;2023-03-26T00:19:46;93555.19;;;9.99;73.73
61128;BME280;47013;42.664;23.242;2023-03-26T00:22:12;93552.47;;;9.99;73.72
61128;BME280;47013;42.664;23.242;2023-03-26T00:24:38;93547.06;;;9.99;73.52
61128;BME280;47013;42.664;23.242;2023-03-26T00:27:04;93544.00;;;9.97;73.77
61128;BME280;47013;42.664;23.242;2023-03-26T00:29:29;93541.66;;;9.99;74.22
61128;BME280;47013;42.664;23.242;2023-03-26T00:31:57;93538.09;;;10.02;74.06
61128;BME280;47013;42.664;23.242;2023-03-26T00:34:22;93526.13;;;10.03;73.43
61128;BME280;47013;42.664;23.242;2023-03-26T00:36:48;93524.19;;;10.04;72.76
61128;BME280;47013;42.664;23.242;2023-03-26T00:39:18;93522.28;;;10.01;73.47
61128;BME280;47013;42.664;23.242;2023-03-26T00:41:43;93532.34;;;10.00;71.98
61128;BME280;47013;42.664;23.242;2023-03-26T00:44:09;93534.59;;;10.05;71.96
61128;BME280;47013;42.664;23.242;2023-03-26T00:46:34;93530.22;;;10.12;70.88
61128;BME280;47013;42.664;23.242;2023-03-26T00:49:00;93530.59;;;10.14;69.54
61128;BME280;47013;42.664;23.242;2023-03-26T00:51:27;93535.56;;;10.19;69.62
61128;BME280;47013;42.664;23.242;2023-03-26T00:53:53;93543.72;;;10.15;68.65
61128;BME280;47013;42.664;23.242;2023-03-26T00:56:18;93547.16;;;10.19;68.69
61128;BME280;47013;42.664;23.242;2023-03-26T00:58:44;93547.88;;;10.23;69.16
61128;BME280;47013;42.664;23.242;2023-03-26T01:01:14;93551.00;;;10.22;68.88
61128;BME280;47013;42.664;23.242;2023-03-26T01:03:40;93547.88;;;10.23;69.51
61128;BME280;47013;42.664;23.242;2023-03-26T01:06:06;93548.75;;;10.17;69.83
61128;BME280;47013;42.664;23.242;2023-03-26T01:08:48;93548.69;;;10.20;70.33
61128;BME280;47013;42.664;23.242;2023-03-26T01:11:20;93551.00;;;10.22;70.72
61128;BME280;47013;42.664;23.242;2023-03-26T01:13:47;93543.91;;;10.04;71.49
61128;BME280;47013;42.664;23.242;2023-03-26T01:16:18;93542.38;;;10.03;71.92
61128;BME280;47013;42.664;23.242;2023-03-26T01:18:49;93548.31;;;9.95;72.37
61128;BME280;47013;42.664;23.242;2023-03-26T01:21:19;93544.22;;;9.83;73.22
61128;BME280;47013;42.664;23.242;2023-03-26T01:23:47;93543.88;;;9.81;73.62
61128;BME280;47013;42.664;23.242;2023-03-26T01:26:19;93550.81;;;9.82;74.07
61128;BME280;47013;42.664;23.242;2023-03-26T01:28:54;93561.34;;;9.77;74.09
61128;BME280;47013;42.664;23.242;2023-03-26T01:31:23;93552.06;;;9.78;74.79
61128;BME280;47013;42.664;23.242;2023-03-26T01:33:57;93556.69;;;9.77;74.99
61128;BME280;47013;42.664;23.242;2023-03-26T01:46:26;93560.25;;;9.70;75.25
61128;BME280;47013;42.664;23.242;2023-03-26T01:48:53;93556.38;;;9.71;75.88
61128;BME280;47013;42.664;23.242;2023-03-26T01:51:27;93565.25;;;9.72;75.48
61128;BME280;47013;42.664;23.242;2023-03-26T01:53:52;93573.75;;;9.74;75.11
61128;BME280;47013;42.664;23.242;2023-03-26T01:59:04;93578.19;;;9.61;75.24
61128;BME280;47013;42.664;23.242;2023-03-26T02:01:39;93563.84;;;9.64;74.58
61128;BME280;47013;42.664;23.242;2023-03-26T02:04:21;93568.38;;;9.70;74.42
61128;BME280;47013;42.664;23.242;2023-03-26T02:06:59;93562.50;;;9.75;74.42
61128;BME280;47013;42.664;23.242;2023-03-26T02:09:30;93571.00;;;9.78;73.71
61128;BME280;47013;42.664;23.242;2023-03-26T02:11:58;93579.47;;;9.80;74.00
61128;BME280;47013;42.664;23.242;2023-03-26T02:14:25;93574.84;;;9.80;73.50
61128;BME280;47013;42.664;23.242;2023-03-26T02:16:52;93569.09;;;9.74;73.28
61128;BME280;47013;42.664;23.242;2023-03-26T02:19:18;93565.59;;;9.78;72.98
61128;BME280;47013;42.664;23.242;2023-03-26T02:21:46;93564.69;;;9.84;73.42
61128;BME280;47013;42.664;23.242;2023-03-26T02:24:13;93564.66;;;9.88;73.25
61128;BME280;47013;42.664;23.242;2023-03-26T02:26:38;93556.50;;;9.91;73.10
61128;BME280;47013;42.664;23.242;2023-03-26T02:29:04;93563.38;;;9.96;71.74
61128;BME280;47013;42.664;23.242;2023-03-26T02:31:29;93567.63;;;9.70;72.05
61128;BME280;47013;42.664;23.242;2023-03-26T02:33:54;93572.72;;;9.64;73.14
61128;BME280;47013;42.664;23.242;2023-03-26T02:36:20;93582.78;;;9.64;73.36
61128;BME280;47013;42.664;23.242;2023-03-26T02:38:49;93587.81;;;9.65;73.65
61128;BME280;47013;42.664;23.242;2023-03-26T02:41:15;93586.63;;;9.66;73.72
61128;BME280;47013;42.664;23.242;2023-03-26T02:43:40;93596.69;;;9.66;74.21
61128;BME280;47013;42.664;23.242;2023-03-26T02:46:05;93593.56;;;9.67;74.08
61128;BME280;47013;42.664;23.242;2023-03-26T02:48:31;93602.41;;;9.71;73.68
61128;BME280;47013;42.664;23.242;2023-03-26T02:50:58;93601.16;;;9.76;73.36
61128;BME280;47013;42.664;23.242;2023-03-26T02:53:23;93601.63;;;9.71;73.26
61128;BME280;47013;42.664;23.242;2023-03-26T02:56:00;93603.63;;;9.67;73.58
61128;BME280;47013;42.664;23.242;2023-03-26T02:58:26;93609.66;;;9.48;74.56
61128;BME280;47013;42.664;23.242;2023-03-26T03:00:54;93614.28;;;9.51;74.17
61128;BME280;47013;42.664;23.242;2023-03-26T03:03:23;93620.81;;;9.53;74.28
61128;BME280;47013;42.664;23.242;2023-03-26T03:05:49;93620.50;;;9.48;74.59
61128;BME280;47013;42.664;23.242;2023-03-26T03:08:16;93627.41;;;9.52;74.49
61128;BME280;47013;42.664;23.242;2023-03-26T03:10:42;93627.47;;;9.45;75.02
61128;BME280;47013;42.664;23.242;2023-03-26T03:13:07;93625.25;;;9.40;75.02
61128;BME280;47013;42.664;23.242;2023-03-26T03:15:33;93626.75;;;9.07;76.65
61128;BME280;47013;42.664;23.242;2023-03-26T03:17:59;93624.00;;;9.10;76.99
61128;BME280;47013;42.664;23.242;2023-03-26T03:20:24;93629.00;;;9.15;76.49
61128;BME280;47013;42.664;23.242;2023-03-26T03:22:49;93641.13;;;9.00;77.16
61128;BME280;47013;42.664;23.242;2023-03-26T03:25:15;93646.50;;;9.04;76.85
61128;BME280;47013;42.664;23.242;2023-03-26T03:27:41;93649.25;;;8.97;77.47
61128;BME280;47013;42.664;23.242;2023-03-26T03:30:07;93656.59;;;9.00;77.15
61128;BME280;47013;42.664;23.242;2023-03-26T03:32:33;93648.13;;;8.94;77.97
61128;BME280;47013;42.664;23.242;2023-03-26T03:34:58;93643.22;;;8.85;78.27
61128;BME280;47013;42.664;23.242;2023-03-26T03:37:23;93644.34;;;8.88;78.01
61128;BME280;47013;42.664;23.242;2023-03-26T03:39:49;93632.75;;;8.88;78.13
61128;BME280;47013;42.664;23.242;2023-03-26T03:42:14;93630.97;;;8.74;78.54
61128;BME280;47013;42.664;23.242;2023-03-26T03:44:39;93631.47;;;8.62;79.69
61128;BME280;47013;42.664;23.242;2023-03-26T03:47:05;93625.78;;;8.49;80.47
61128;BME280;47013;42.664;23.242;2023-03-26T03:49:31;93639.78;;;8.37;81.27
61128;BME280;47013;42.664;23.242;2023-03-26T03:51:56;93634.66;;;8.46;81.07
61128;BME280;47013;42.664;23.242;2023-03-26T03:54:21;93633.09;;;8.52;80.37
61128;BME280;47013;42.664;23.242;2023-03-26T03:56:46;93629.97;;;8.53;80.46
61128;BME280;47013;42.664;23.242;2023-03-26T03:59:12;93629.94;;;8.57;80.10
61128;BME280;47013;42.664;23.242;2023-03-26T04:01:37;93623.75;;;8.60;79.95
61128;BME280;47013;42.664;23.242;2023-03-26T04:04:03;93628.84;;;8.51;79.95
61128;BME280;47013;42.664;23.242;2023-03-26T04:06:28;93624.25;;;8.48;80.15
61128;BME280;47013;42.664;23.242;2023-03-26T04:08:54;93623.84;;;8.46;80.32
61128;BME280;47013;42.664;23.242;2023-03-26T04:11:20;93636.22;;;8.47;80.68
61128;BME280;47013;42.664;23.242;2023-03-26T04:13:45;93638.16;;;8.46;80.71
61128;BME280;47013;42.664;23.242;2023-03-26T04:16:11;93652.00;;;8.52;80.53
61128;BME280;47013;42.664;23.242;2023-03-26T04:18:36;93656.22;;;8.53;80.36
61128;BME280;47013;42.664;23.242;2023-03-26T04:21:03;93663.16;;;8.54;80.43
61128;BME280;47013;42.664;23.242;2023-03-26T04:23:29;93668.97;;;8.52;80.38
61128;BME280;47013;42.664;23.242;2023-03-26T04:25:55;93672.78;;;8.58;80.30
61128;BME280;47013;42.664;23.242;2023-03-26T04:30:54;93683.22;;;8.60;80.18
61128;BME280;47013;42.664;23.242;2023-03-26T04:33:21;93689.38;;;8.61;80.11
61128;BME280;47013;42.664;23.242;2023-03-26T04:35:46;93691.72;;;8.55;80.57
61128;BME280;47013;42.664;23.242;2023-03-26T04:38:12;93698.25;;;8.57;80.53
61128;BME280;47013;42.664;23.242;2023-03-26T04:40:41;93706.41;;;8.54;80.12
61128;BME280;47013;42.664;23.242;2023-03-26T04:43:16;93706.38;;;8.57;80.60
61128;BME280;47013;42.664;23.242;2023-03-26T04:45:42;93709.50;;;8.52;80.17
61128;BME280;47013;42.664;23.242;2023-03-26T04:48:09;93711.81;;;8.54;79.81
61128;BME280;47013;42.664;23.242;2023-03-26T04:50:38;93727.69;;;8.45;79.62
61128;BME280;47013;42.664;23.242;2023-03-26T04:53:04;93721.88;;;8.50;79.10
61128;BME280;47013;42.664;23.242;2023-03-26T04:55:34;93728.00;;;8.57;78.33
61128;BME280;47013;42.664;23.242;2023-03-26T04:58:02;93725.75;;;8.45;79.04
61128;BME280;47013;42.664;23.242;2023-03-26T05:00:29;93722.25;;;8.52;77.73
61128;BME280;47013;42.664;23.242;2023-03-26T05:02:55;93724.25;;;8.41;76.97
61128;BME280;47013;42.664;23.242;2023-03-26T05:05:21;93720.09;;;8.22;77.52
61128;BME280;47013;42.664;23.242;2023-03-26T05:07:47;93718.50;;;8.28;77.66
61128;BME280;47013;42.664;23.242;2023-03-26T05:10:13;93728.50;;;8.42;76.62
61128;BME280;47013;42.664;23.242;2023-03-26T05:12:38;93731.56;;;8.47;75.16
61128;BME280;47013;42.664;23.242;2023-03-26T05:15:04;93734.91;;;8.62;75.16
61128;BME280;47013;42.664;23.242;2023-03-26T05:17:30;93730.22;;;8.70;75.02
61128;BME280;47013;42.664;23.242;2023-03-26T05:19:59;93740.91;;;8.84;73.73
61128;BME280;47013;42.664;23.242;2023-03-26T05:22:24;93737.81;;;8.89;73.50
61128;BME280;47013;42.664;23.242;2023-03-26T05:24:49;93741.78;;;8.74;73.66
61128;BME280;47013;42.664;23.242;2023-03-26T05:27:15;93744.34;;;8.92;73.30
61128;BME280;47013;42.664;23.242;2023-03-26T05:29:41;93744.66;;;9.01;73.15
61128;BME280;47013;42.664;23.242;2023-03-26T05:32:07;93742.00;;;8.94;73.90
61128;BME280;47013;42.664;23.242;2023-03-26T05:34:32;93743.00;;;9.10;72.85
61128;BME280;47013;42.664;23.242;2023-03-26T05:36:58;93743.38;;;9.16;74.06
61128;BME280;47013;42.664;23.242;2023-03-26T05:39:23;93741.31;;;9.27;73.18
61128;BME280;47013;42.664;23.242;2023-03-26T05:41:50;93733.03;;;9.45;72.55
61128;BME280;47013;42.664;23.242;2023-03-26T05:44:17;93751.50;;;9.54;71.96
61128;BME280;47013;42.664;23.242;2023-03-26T05:46:42;93744.06;;;9.61;72.03
61128;BME280;47013;42.664;23.242;2023-03-26T05:49:07;93744.00;;;9.68;70.69
61128;BME280;47013;42.664;23.242;2023-03-26T05:51:33;93751.34;;;9.68;70.90
61128;BME280;47013;42.664;23.242;2023-03-26T05:53:58;93749.75;;;9.70;70.45
61128;BME280;47013;42.664;23.242;2023-03-26T05:56:23;93747.06;;;9.70;70.58
61128;BME280;47013;42.664;23.242;2023-03-26T05:58:48;93745.06;;;9.78;70.26
61128;BME280;47013;42.664;23.242;2023-03-26T06:01:13;93747.19;;;9.94;69.42
61128;BME280;47013;42.664;23.242;2023-03-26T06:03:41;93749.31;;;10.10;68.73
61128;BME280;47013;42.664;23.242;2023-03-26T06:06:10;93759.91;;;10.31;68.15
61128;BME280;47013;42.664;23.242;2023-03-26T06:08:40;93754.69;;;10.44;67.35
61128;BME280;47013;42.664;23.242;2023-03-26T06:11:06;93756.13;;;10.52;66.79
61128;BME280;47013;42.664;23.242;2023-03-26T06:13:32;93749.78;;;10.62;64.71
61128;BME280;47013;42.664;23.242;2023-03-26T06:15:57;93736.94;;;10.66;64.31
61128;BME280;47013;42.664;23.242;2023-03-26T06:18:23;93744.66;;;10.68;64.51
61128;BME280;47013;42.664;23.242;2023-03-26T06:20:49;93735.66;;;10.74;64.19
61128;BME280;47013;42.664;23.242;2023-03-26T06:23:15;93743.53;;;10.65;63.92
61128;BME280;47013;42.664;23.242;2023-03-26T06:25:40;93733.81;;;10.68;62.87
61128;BME280;47013;42.664;23.242;2023-03-26T06:28:06;93750.81;;;10.72;62.52
61128;BME280;47013;42.664;23.242;2023-03-26T06:30:31;93740.22;;;10.81;61.55
61128;BME280;47013;42.664;23.242;2023-03-26T06:32:56;93733.41;;;10.92;62.58
61128;BME280;47013;42.664;23.242;2023-03-26T06:35:22;93729.78;;;11.03;61.87
61128;BME280;47013;42.664;23.242;2023-03-26T06:37:47;93728.06;;;11.12;60.59
61128;BME280;47013;42.664;23.242;2023-03-26T06:40:12;93727.13;;;11.22;61.17
61128;BME280;47013;42.664;23.242;2023-03-26T06:42:38;93728.00;;;11.16;59.97
61128;BME280;47013;42.664;23.242;2023-03-26T06:45:03;93729.13;;;11.18;59.54
61128;BME280;47013;42.664;23.242;2023-03-26T06:47:28;93718.63;;;11.20;58.59
61128;BME280;47013;42.664;23.242;2023-03-26T06:49:54;93731.13;;;11.14;59.98
61128;BME280;47013;42.664;23.242;2023-03-26T06:52:19;93734.97;;;11.17;59.51
61128;BME280;47013;42.664;23.242;2023-03-26T06:54:44;93735.78;;;11.14;59.21
61128;BME280;47013;42.664;23.242;2023-03-26T06:57:10;93742.06;;;11.11;60.07
61128;BME280;47013;42.664;23.242;2023-03-26T06:59:35;93746.16;;;11.19;59.80
61128;BME280;47013;42.664;23.242;2023-03-26T07:02:00;93750.78;;;11.22;59.26
61128;BME280;47013;42.664;23.242;2023-03-26T07:04:25;93746.47;;;11.25;59.16
61128;BME280;47013;42.664;23.242;2023-03-26T07:06:51;93748.84;;;11.22;58.73
61128;BME280;47013;42.664;23.242;2023-03-26T07:09:16;93755.72;;;11.27;59.17
61128;BME280;47013;42.664;23.242;2023-03-26T07:11:41;93746.88;;;11.46;59.53
61128;BME280;47013;42.664;23.242;2023-03-26T07:14:07;93752.94;;;11.54;57.61
61128;BME280;47013;42.664;23.242;2023-03-26T07:16:32;93750.53;;;11.60;56.58
61128;BME280;47013;42.664;23.242;2023-03-26T07:18:57;93748.78;;;11.69;56.39
61128;BME280;47013;42.664;23.242;2023-03-26T07:21:22;93743.13;;;11.60;57.26
61128;BME280;47013;42.664;23.242;2023-03-26T07:23:48;93738.25;;;11.71;57.31
61128;BME280;47013;42.664;23.242;2023-03-26T07:26:18;93741.50;;;11.86;56.52
61128;BME280;47013;42.664;23.242;2023-03-26T07:28:49;93736.56;;;12.01;55.96
61128;BME280;47013;42.664;23.242;2023-03-26T07:31:31;93735.09;;;12.16;55.43
61128;BME280;47013;42.664;23.242;2023-03-26T07:34:07;93732.06;;;12.30;55.01
61128;BME280;47013;42.664;23.242;2023-03-26T07:36:42;93725.31;;;12.38;54.47
61128;BME280;47013;42.664;23.242;2023-03-26T07:41:54;93727.19;;;12.74;52.26
61128;BME280;47013;42.664;23.242;2023-03-26T07:44:32;93725.53;;;12.80;51.82
61128;BME280;47013;42.664;23.242;2023-03-26T07:47:01;93723.75;;;12.90;50.64
61128;BME280;47013;42.664;23.242;2023-03-26T07:49:32;93731.47;;;13.08;48.27
61128;BME280;47013;42.664;23.242;2023-03-26T07:51:59;93732.41;;;13.17;45.79
61128;BME280;47013;42.664;23.242;2023-03-26T07:54:25;93725.38;;;13.20;43.35
61128;BME280;47013;42.664;23.242;2023-03-26T07:56:51;93724.94;;;13.21;44.49
61128;BME280;47013;42.664;23.242;2023-03-26T07:59:33;93720.44;;;13.31;45.66
61128;BME280;47013;42.664;23.242;2023-03-26T08:04:51;93711.53;;;13.60;45.61
61128;BME280;47013;42.664;23.242;2023-03-26T08:08:06;93707.44;;;13.68;44.07
61128;BME280;47013;42.664;23.242;2023-03-26T08:15:35;93712.59;;;13.91;42.99
61128;BME280;47013;42.664;23.242;2023-03-26T08:23:00;93713.88;;;14.28;42.11
61128;BME280;47013;42.664;23.242;2023-03-26T08:25:33;93718.59;;;14.40;38.03
61128;BME280;47013;42.664;23.242;2023-03-26T08:30:24;93723.13;;;14.60;39.23
61128;BME280;47013;42.664;23.242;2023-03-26T08:32:57;93710.56;;;14.62;40.16
61128;BME280;47013;42.664;23.242;2023-03-26T08:35:23;93719.53;;;14.63;39.16
61128;BME280;47013;42.664;23.242;2023-03-26T08:37:49;93729.00;;;14.58;38.55
61128;BME280;47013;42.664;23.242;2023-03-26T08:40:17;93719.72;;;14.56;39.12
61128;BME280;47013;42.664;23.242;2023-03-26T08:56:00;93715.78;;;15.08;41.81
61128;BME280;47013;42.664;23.242;2023-03-26T09:09:25;93728.22;;;15.69;38.42
61128;BME280;47013;42.664;23.242;2023-03-26T09:17:51;93712.31;;;15.89;35.56
61128;BME280;47013;42.664;23.242;2023-03-26T09:32:55;93703.22;;;16.45;34.31
61128;BME280;47013;42.664;23.242;2023-03-26T09:43:23;93697.63;;;16.27;33.82
61128;BME280;47013;42.664;23.242;2023-03-26T09:46:02;93701.94;;;16.28;34.22
61128;BME280;47013;42.664;23.242;2023-03-26T09:51:27;93696.03;;;16.38;33.76
61128;BME280;47013;42.664;23.242;2023-03-26T10:01:41;93692.81;;;16.62;32.57
61128;BME280;47013;42.664;23.242;2023-03-26T10:12:27;93668.44;;;16.86;29.98
61128;BME280;47013;42.664;23.242;2023-03-26T10:15:12;93666.47;;;16.86;31.20
61128;BME280;47013;42.664;23.242;2023-03-26T10:17:48;93661.06;;;17.14;29.64
61128;BME280;47013;42.664;23.242;2023-03-26T10:23:09;93644.03;;;17.37;29.56
61128;BME280;47013;42.664;23.242;2023-03-26T10:31:12;93636.28;;;17.81;27.43
61128;BME280;47013;42.664;23.242;2023-03-26T10:33:47;93635.53;;;17.81;26.22
61128;BME280;47013;42.664;23.242;2023-03-26T10:39:48;93625.94;;;17.85;27.11
61128;BME280;47013;42.664;23.242;2023-03-26T10:41:48;93625.06;;;18.31;26.54
61128;BME280;47013;42.664;23.242;2023-03-26T10:55:14;93611.06;;;19.19;22.89
61128;BME280;47013;42.664;23.242;2023-03-26T11:00:13;93609.28;;;19.54;22.10
61128;BME280;47013;42.664;23.242;2023-03-26T11:02:42;93607.91;;;19.35;22.92
61128;BME280;47013;42.664;23.242;2023-03-26T11:07:46;93607.44;;;19.36;22.17
61128;BME280;47013;42.664;23.242;2023-03-26T11:15:23;93602.59;;;19.55;22.41
61128;BME280;47013;42.664;23.242;2023-03-26T11:30:26;93573.97;;;19.91;22.67
61128;BME280;47013;42.664;23.242;2023-03-26T11:33:00;93572.84;;;20.13;23.34
61128;BME280;47013;42.664;23.242;2023-03-26T11:35:40;93570.72;;;20.37;23.85
61128;BME280;47013;42.664;23.242;2023-03-26T11:40:39;93567.94;;;20.67;22.42
61128;BME280;47013;42.664;23.242;2023-03-26T11:43:09;93553.56;;;20.77;22.53
61128;BME280;47013;42.664;23.242;2023-03-26T11:45:37;93551.06;;;20.59;23.14
61128;BME280;47013;42.664;23.242;2023-03-26T11:48:11;93532.47;;;20.74;22.76
61128;BME280;47013;42.664;23.242;2023-03-26T11:50:41;93534.56;;;21.00;22.46
61128;BME280;47013;42.664;23.242;2023-03-26T11:53:12;93521.75;;;20.97;23.64
61128;BME280;47013;42.664;23.242;2023-03-26T11:58:42;93516.91;;;21.32;21.65
61128;BME280;47013;42.664;23.242;2023-03-26T12:01:12;93518.13;;;21.26;20.08
61128;BME280;47013;42.664;23.242;2023-03-26T12:03:38;93509.84;;;21.26;21.60
61128;BME280;47013;42.664;23.242;2023-03-26T12:06:04;93508.47;;;21.36;21.97
61128;BME280;47013;42.664;23.242;2023-03-26T12:08:32;93505.72;;;21.21;22.23
61128;BME280;47013;42.664;23.242;2023-03-26T12:11:05;93504.03;;;21.03;22.02
61128;BME280;47013;42.664;23.242;2023-03-26T12:16:14;93488.53;;;21.06;22.20
61128;BME280;47013;42.664;23.242;2023-03-26T12:18:40;93485.63;;;20.95;22.41
61128;BME280;47013;42.664;23.242;2023-03-26T12:21:15;93476.84;;;20.35;21.27
61128;BME280;47013;42.664;23.242;2023-03-26T12:24:02;93473.44;;;20.60;21.49
61128;BME280;47013;42.664;23.242;2023-03-26T12:26:40;93467.31;;;20.91;21.25
61128;BME280;47013;42.664;23.242;2023-03-26T12:29:08;93474.16;;;21.22;22.24
61128;BME280;47013;42.664;23.242;2023-03-26T12:34:18;93451.19;;;21.51;19.51
61128;BME280;47013;42.664;23.242;2023-03-26T12:36:51;93457.50;;;21.57;19.49
61128;BME280;47013;42.664;23.242;2023-03-26T12:39:31;93449.75;;;21.35;18.63
61128;BME280;47013;42.664;23.242;2023-03-26T12:41:57;93451.94;;;21.52;18.85
61128;BME280;47013;42.664;23.242;2023-03-26T12:44:31;93445.94;;;21.53;18.61
61128;BME280;47013;42.664;23.242;2023-03-26T12:49:32;93437.19;;;21.60;18.89
61128;BME280;47013;42.664;23.242;2023-03-26T12:52:03;93437.69;;;21.59;19.12
61128;BME280;47013;42.664;23.242;2023-03-26T13:07:15;93439.81;;;21.43;17.95
61128;BME280;47013;42.664;23.242;2023-03-26T13:09:50;93442.31;;;21.21;17.89
61128;BME280;47013;42.664;23.242;2023-03-26T13:25:20;93426.72;;;21.64;18.26
61128;BME280;47013;42.664;23.242;2023-03-26T13:30:37;93428.53;;;21.41;18.21
61128;BME280;47013;42.664;23.242;2023-03-26T13:33:17;93419.31;;;21.24;17.65
61128;BME280;47013;42.664;23.242;2023-03-26T13:51:17;93417.66;;;20.86;17.97
61128;BME280;47013;42.664;23.242;2023-03-26T13:54:08;93410.00;;;20.55;18.29
61128;BME280;47013;42.664;23.242;2023-03-26T13:56:41;93412.44;;;20.47;18.72
61128;BME280;47013;42.664;23.242;2023-03-26T13:59:13;93415.03;;;20.36;18.64
61128;BME280;47013;42.664;23.242;2023-03-26T14:02:28;93404.34;;;20.23;18.59
61128;BME280;47013;42.664;23.242;2023-03-26T14:04:32;93408.13;;;20.06;18.66
61128;BME280;47013;42.664;23.242;2023-03-26T14:07:08;93408.97;;;19.97;19.29
61128;BME280;47013;42.664;23.242;2023-03-26T14:09:39;93397.63;;;19.74;19.63
61128;BME280;47013;42.664;23.242;2023-03-26T14:14:52;93385.72;;;19.19;20.64
61128;BME280;47013;42.664;23.242;2023-03-26T14:30:45;93386.16;;;18.49;22.46
61128;BME280;47013;42.664;23.242;2023-03-26T14:35:45;93378.19;;;18.36;23.29
61128;BME280;47013;42.664;23.242;2023-03-26T14:53:40;93369.25;;;17.36;24.47
61128;BME280;47013;42.664;23.242;2023-03-26T14:59:00;93373.09;;;17.21;26.09
61128;BME280;47013;42.664;23.242;2023-03-26T15:19:38;93371.34;;;16.63;25.79
61128;BME280;47013;42.664;23.242;2023-03-26T15:32:14;93372.09;;;16.27;27.26
61128;BME280;47013;42.664;23.242;2023-03-26T15:42:58;93375.47;;;16.31;27.97
61128;BME280;47013;42.664;23.242;2023-03-26T15:55:50;93378.47;;;16.05;28.16
61128;BME280;47013;42.664;23.242;2023-03-26T16:11:00;93379.31;;;15.75;29.50
61128;BME280;47013;42.664;23.242;2023-03-26T16:18:35;93392.22;;;15.65;29.73
61128;BME280;47013;42.664;23.242;2023-03-26T16:33:38;93404.81;;;15.10;32.38
61128;BME280;47013;42.664;23.242;2023-03-26T16:36:22;93399.63;;;15.02;31.90
61128;BME280;47013;42.664;23.242;2023-03-26T16:54:49;93403.13;;;14.25;35.38
61128;BME280;47013;42.664;23.242;2023-03-26T17:02:28;93400.81;;;14.01;36.17
61128;BME280;47013;42.664;23.242;2023-03-26T17:05:07;93410.41;;;13.93;36.89
61128;BME280;47013;42.664;23.242;2023-03-26T17:07:37;93409.56;;;13.83;36.48
61128;BME280;47013;42.664;23.242;2023-03-26T17:10:08;93411.31;;;13.77;36.21
61128;BME280;47013;42.664;23.242;2023-03-26T17:12:39;93399.44;;;13.71;36.93
61128;BME280;47013;42.664;23.242;2023-03-26T17:20:13;93407.97;;;13.48;37.39
61128;BME280;47013;42.664;23.242;2023-03-26T17:22:54;93414.41;;;13.41;37.19
61128;BME280;47013;42.664;23.242;2023-03-26T17:28:06;93412.09;;;13.27;37.01
61128;BME280;47013;42.664;23.242;2023-03-26T17:41:04;93403.09;;;13.01;37.53
61128;BME280;47013;42.664;23.242;2023-03-26T17:43:33;93405.94;;;12.97;37.39
61128;BME280;47013;42.664;23.242;2023-03-26T17:46:01;93400.59;;;12.94;37.52
61128;BME280;47013;42.664;23.242;2023-03-26T17:48:26;93404.97;;;12.91;37.43
61128;BME280;47013;42.664;23.242;2023-03-26T17:51:03;93402.31;;;12.88;37.78
61128;BME280;47013;42.664;23.242;2023-03-26T17:53:30;93395.78;;;12.85;37.96
61128;BME280;47013;42.664;23.242;2023-03-26T17:55:59;93392.75;;;12.83;37.90
61128;BME280;47013;42.664;23.242;2023-03-26T17:58:43;93394.06;;;12.79;38.26
61128;BME280;47013;42.664;23.242;2023-03-26T18:03:47;93395.88;;;12.69;38.69
61128;BME280;47013;42.664;23.242;2023-03-26T18:06:19;93390.53;;;12.65;38.25
61128;BME280;47013;42.664;23.242;2023-03-26T18:16:50;93392.91;;;12.51;38.77
61128;BME280;47013;42.664;23.242;2023-03-26T18:19:17;93389.81;;;12.49;38.80
61128;BME280;47013;42.664;23.242;2023-03-26T18:21:44;93388.72;;;12.46;38.51
61128;BME280;47013;42.664;23.242;2023-03-26T18:24:14;93386.13;;;12.43;39.19
61128;BME280;47013;42.664;23.242;2023-03-26T18:26:42;93391.31;;;12.37;39.26
61128;BME280;47013;42.664;23.242;2023-03-26T18:31:40;93377.91;;;12.30;38.69
61128;BME280;47013;42.664;23.242;2023-03-26T18:34:11;93372.16;;;12.28;39.27
61128;BME280;47013;42.664;23.242;2023-03-26T18:36:37;93375.28;;;12.26;40.02
61128;BME280;47013;42.664;23.242;2023-03-26T18:39:02;93372.75;;;12.19;38.75
61128;BME280;47013;42.664;23.242;2023-03-26T18:41:31;93372.09;;;12.15;39.19
61128;BME280;47013;42.664;23.242;2023-03-26T18:44:01;93368.47;;;12.05;39.36
61128;BME280;47013;42.664;23.242;2023-03-26T18:46:28;93368.47;;;12.05;40.03
61128;BME280;47013;42.664;23.242;2023-03-26T18:48:53;93367.47;;;11.83;39.35
61128;BME280;47013;42.664;23.242;2023-03-26T18:51:19;93363.56;;;11.84;39.74
61128;BME280;47013;42.664;23.242;2023-03-26T18:53:49;93357.81;;;11.82;38.91
61128;BME280;47013;42.664;23.242;2023-03-26T18:56:56;93356.28;;;11.81;38.80
61128;BME280;47013;42.664;23.242;2023-03-26T18:59:05;93344.22;;;11.82;39.93
61128;BME280;47013;42.664;23.242;2023-03-26T19:01:31;93345.47;;;11.77;39.33
61128;BME280;47013;42.664;23.242;2023-03-26T19:03:58;93339.81;;;11.72;39.43
61128;BME280;47013;42.664;23.242;2023-03-26T19:06:24;93344.13;;;11.69;39.68
61128;BME280;47013;42.664;23.242;2023-03-26T19:08:50;93336.41;;;11.68;39.98
61128;BME280;47013;42.664;23.242;2023-03-26T19:11:16;93328.31;;;11.35;40.27
61128;BME280;47013;42.664;23.242;2023-03-26T19:13:42;93323.69;;;11.32;40.80